Time;durP1;ratioP1;P1;durP2;ratioP2;P2;SDS_P1;SDS_P2;PMS_P1;PMS_P2;Temp;Humidity;BMP_temperature;BMP_pressure;BME280_temperature;BME280_humidity;BME280_pressure;Samples;Min_cycle;Max_cycle;Signal;HPM_P1;HPM_P2
2020/12/11 00:04:44;;;;;;;3.90;2.70;;;19.90;59.20;;;;;;15332422;29;20487;-62
2020/12/11 00:12:15;;;;;;;4.50;2.93;;;19.90;59.20;;;;;;15332109;29;20444;-61
2020/12/11 00:19:45;;;;;;;5.40;3.70;;;19.90;59.30;;;;;;15332024;29;20089;-61
2020/12/11 00:27:16;;;;;;;6.80;4.20;;;19.80;59.30;;;;;;15329997;29;20578;-61
2020/12/11 00:34:47;;;;;;;6.50;4.28;;;19.80;59.30;;;;;;15331334;29;20432;-61
2020/12/11 00:42:21;;;;;;;6.28;4.57;;;19.80;59.10;;;;;;15330015;29;20043;-61
2020/12/11 00:49:52;;;;;;;5.47;3.92;;;19.80;59.10;;;;;;15329842;29;20036;-61
2020/12/11 00:57:22;;;;;;;4.45;3.10;;;19.80;59.20;;;;;;15330102;29;20094;-61
2020/12/11 01:04:54;;;;;;;8.70;6.57;;;19.80;59.30;;;;;;15329116;29;20573;-61
2020/12/11 01:12:24;;;;;;;7.75;5.97;;;19.80;59.40;;;;;;15328668;29;20031;-61
2020/12/11 01:19:55;;;;;;;5.00;2.50;;;19.90;59.40;;;;;;15328108;29;20027;-61
2020/12/11 01:27:25;;;;;;;4.55;2.65;;;19.90;59.40;;;;;;15327546;29;20562;-61
2020/12/11 01:34:56;;;;;;;5.30;3.43;;;19.80;59.30;;;;;;15327724;29;20028;-61
2020/12/11 01:42:26;;;;;;;5.10;3.50;;;19.80;59.30;;;;;;15327357;29;20468;-61
2020/12/11 01:49:57;;;;;;;5.27;3.63;;;19.80;59.40;;;;;;15326660;29;20031;-61
2020/12/11 01:57:44;;;;;;;6.25;3.50;;;19.80;59.40;;;;;;15327000;29;20032;-61
2020/12/11 02:05:15;;;;;;;5.55;3.85;;;19.80;59.30;;;;;;15328223;29;20038;-62
2020/12/11 02:12:45;;;;;;;6.23;3.43;;;19.80;59.30;;;;;;15325529;29;20111;-61
2020/12/11 02:20:16;;;;;;;4.60;3.17;;;19.80;59.40;;;;;;15324540;29;20031;-61
2020/12/11 02:27:47;;;;;;;5.47;3.87;;;19.80;59.40;;;;;;15322915;29;20027;-61
2020/12/11 04:07:22;;;;;;;2.03;1.45;;;19.80;59.60;;;;;;15599236;23;20048;-59
2020/12/11 04:14:52;;;;;;;2.37;1.63;;;19.80;59.70;;;;;;15320582;29;20023;-59
2020/12/11 04:22:26;;;;;;;2.70;1.73;;;19.80;59.70;;;;;;15329914;29;20076;-59
2020/12/11 04:29:56;;;;;;;3.30;1.80;;;19.80;59.80;;;;;;15330833;29;20395;-59
2020/12/11 04:37:27;;;;;;;2.50;1.60;;;19.80;59.80;;;;;;15330421;29;20035;-59
2020/12/11 04:44:57;;;;;;;2.03;1.30;;;19.80;59.80;;;;;;15330691;29;20438;-60
2020/12/11 04:52:33;;;;;;;3.00;1.60;;;19.80;59.80;;;;;;15330658;29;20463;-59
2020/12/11 05:00:04;;;;;;;5.05;3.83;;;19.80;59.80;;;;;;15329757;29;20455;-59
2020/12/11 05:07:34;;;;;;;3.30;2.30;;;19.80;59.80;;;;;;15333686;29;20047;-59
2020/12/11 05:15:11;;;;;;;3.17;2.08;;;19.80;59.80;;;;;;15335937;29;20456;-60
2020/12/11 05:22:41;;;;;;;3.45;2.20;;;19.80;59.80;;;;;;15327762;29;20024;-59
2020/12/11 05:30:13;;;;;;;2.55;1.23;;;19.70;59.80;;;;;;15329487;29;20032;-59
2020/12/11 05:37:44;;;;;;;4.40;3.10;;;19.80;59.90;;;;;;15328072;29;20087;-60
2020/12/11 05:45:18;;;;;;;3.78;2.65;;;19.70;60.00;;;;;;15326916;29;20513;-59
2020/12/11 05:52:49;;;;;;;2.60;1.60;;;19.80;60.00;;;;;;15327562;29;20032;-59
2020/12/11 06:00:20;;;;;;;2.13;1.35;;;19.80;60.10;;;;;;15326543;29;20478;-59
2020/12/11 06:07:52;;;;;;;4.45;2.55;;;19.80;60.00;;;;;;15325784;29;20044;-59
2020/12/11 06:15:28;;;;;;;3.22;1.35;;;19.80;59.90;;;;;;15325920;29;20028;-59
2020/12/11 06:23:30;;;;;;;3.92;1.80;;;19.80;59.90;;;;;;15324865;29;20046;-59
2020/12/11 06:31:45;;;;;;;12.77;4.25;;;19.90;60.30;;;;;;15325625;29;20100;-60
2020/12/11 06:39:41;;;;;;;16.77;5.80;;;19.80;60.40;;;;;;15319080;29;20040;-59
2020/12/11 06:47:12;;;;;;;16.65;4.53;;;19.90;60.60;;;;;;15314053;29;20032;-59
2020/12/11 06:54:42;;;;;;;12.37;4.10;;;19.90;60.60;;;;;;15325204;29;20117;-60
2020/12/11 07:02:16;;;;;;;11.63;4.05;;;19.90;60.30;;;;;;15324133;29;20398;-59
2020/12/11 07:09:48;;;;;;;18.38;4.78;;;19.90;60.30;;;;;;15324026;29;20498;-60
2020/12/11 07:17:25;;;;;;;12.05;4.55;;;19.90;60.50;;;;;;15323041;29;20434;-60
2020/12/11 07:24:56;;;;;;;9.23;3.38;;;19.90;60.20;;;;;;15326372;29;20032;-59
2020/12/11 07:32:27;;;;;;;8.93;3.08;;;19.90;60.00;;;;;;15326056;29;20471;-60
2020/12/11 07:39:57;;;;;;;6.35;2.75;;;19.90;59.90;;;;;;15322536;29;20097;-60
2020/12/11 07:47:28;;;;;;;5.67;2.27;;;19.90;59.90;;;;;;15322952;29;20031;-59
2020/12/11 07:54:59;;;;;;;10.60;2.70;;;19.90;60.00;;;;;;15328933;29;20103;-60
2020/12/11 08:02:31;;;;;;;6.55;2.67;;;19.90;60.10;;;;;;15333036;29;20059;-60
2020/12/11 08:10:10;;;;;;;6.18;2.30;;;19.90;60.10;;;;;;15333524;29;20039;-59
2020/12/11 08:17:42;;;;;;;6.13;2.60;;;19.90;60.10;;;;;;15331824;29;20162;-61
2020/12/11 08:25:23;;;;;;;6.10;2.50;;;19.90;60.10;;;;;;15332461;29;20034;-59
2020/12/11 08:32:54;;;;;;;4.75;2.00;;;19.90;60.10;;;;;;15332282;29;20111;-62
2020/12/11 08:40:26;;;;;;;6.87;2.37;;;19.90;60.20;;;;;;15331473;29;20072;-60
2020/12/11 08:56:07;;;;;;;5.47;2.67;;;19.90;60.60;;;;;;15282738;29;20035;-59
2020/12/11 09:03:38;;;;;;;7.20;2.60;;;20.00;60.60;;;;;;15329292;29;20039;-59
2020/12/11 09:11:08;;;;;;;6.00;2.50;;;20.00;60.60;;;;;;15329899;29;20036;-59
2020/12/11 09:18:39;;;;;;;5.20;2.47;;;20.00;60.50;;;;;;15329697;29;20057;-59
2020/12/11 09:26:10;;;;;;;4.70;2.27;;;20.00;60.40;;;;;;15329143;29;20486;-59
2020/12/11 09:33:43;;;;;;;4.05;1.92;;;19.90;60.40;;;;;;15329282;29;20442;-59
2020/12/11 09:41:17;;;;;;;4.47;1.85;;;19.90;60.60;;;;;;15328365;29;20036;-59
2020/12/11 09:56:26;;;;;;;3.47;1.90;;;20.00;60.50;;;;;;15327327;29;20027;-59
2020/12/11 10:03:56;;;;;;;3.60;1.70;;;20.00;60.60;;;;;;15342098;23;20044;-61
2020/12/11 10:11:27;;;;;;;5.70;1.90;;;20.00;60.50;;;;;;15325643;29;20043;-60
2020/12/11 10:18:57;;;;;;;4.75;1.88;;;20.00;60.50;;;;;;15323942;29;20039;-62
2020/12/11 10:26:29;;;;;;;3.90;1.70;;;20.00;60.60;;;;;;15324935;29;20148;-62
2020/12/11 10:34:00;;;;;;;3.42;2.10;;;19.90;60.50;;;;;;15324182;29;20098;-61
2020/12/11 10:41:30;;;;;;;3.92;1.50;;;20.00;60.60;;;;;;15323916;29;20466;-60
2020/12/11 10:49:01;;;;;;;4.03;1.73;;;19.90;60.60;;;;;;15323469;29;20026;-61
2020/12/11 10:56:31;;;;;;;15.15;6.35;;;20.00;60.80;;;;;;15324150;29;20035;-62
2020/12/11 11:04:02;;;;;;;8.07;4.13;;;20.00;60.80;;;;;;15322645;29;20063;-60
2020/12/11 11:11:47;;;;;;;12.70;5.18;;;20.00;60.60;;;;;;15321253;29;20032;-61
2020/12/11 11:19:41;;;;;;;10.27;3.87;;;20.00;60.50;;;;;;15322716;29;20056;-62
2020/12/11 11:27:25;;;;;;;8.82;4.95;;;20.00;60.50;;;;;;15322069;29;20512;-62
2020/12/11 11:34:56;;;;;;;8.85;4.15;;;20.00;60.70;;;;;;15322838;29;20505;-63
2020/12/11 11:42:27;;;;;;;6.20;2.47;;;19.90;60.80;;;;;;15321279;29;20107;-62
2020/12/11 11:57:46;;;;;;;7.32;3.30;;;20.00;60.60;;;;;;15321804;29;20075;-64
2020/12/11 12:05:17;;;;;;;5.63;2.80;;;19.90;60.80;;;;;;15320634;29;20486;-64
2020/12/11 12:12:48;;;;;;;6.35;2.45;;;20.00;60.80;;;;;;15321353;29;20482;-64
2020/12/11 12:20:29;;;;;;;7.25;2.97;;;20.00;60.80;;;;;;15320189;29;20074;-64
2020/12/11 12:43:21;;;;;;;5.30;2.72;;;20.00;60.60;;;;;;15329695;29;20130;-64
2020/12/11 12:50:51;;;;;;;5.65;2.75;;;20.00;60.50;;;;;;15330747;29;20027;-64
2020/12/11 12:58:22;;;;;;;4.33;2.60;;;20.00;60.40;;;;;;15329457;29;20395;-62
2020/12/11 13:05:52;;;;;;;4.53;1.90;;;20.00;60.30;;;;;;15330273;29;20058;-62
2020/12/11 13:13:23;;;;;;;4.03;1.70;;;20.00;60.30;;;;;;15330030;29;20446;-62
2020/12/11 13:20:54;;;;;;;2.80;1.60;;;20.00;60.50;;;;;;15333330;29;20078;-63
2020/12/11 13:28:24;;;;;;;3.72;1.90;;;20.10;60.40;;;;;;15329563;29;20027;-63
2020/12/11 13:35:55;;;;;;;3.37;1.80;;;20.00;60.40;;;;;;15330219;29;20034;-63
2020/12/11 13:43:25;;;;;;;4.55;1.92;;;20.10;60.30;;;;;;15327940;29;20040;-63
2020/12/11 13:50:56;;;;;;;3.40;1.53;;;20.10;60.40;;;;;;15327157;29;20409;-63
2020/12/11 13:58:27;;;;;;;3.20;1.63;;;20.00;60.40;;;;;;15327168;29;20459;-62
2020/12/11 14:05:57;;;;;;;3.97;1.58;;;20.10;60.30;;;;;;15327418;29;20038;-63
2020/12/11 14:13:29;;;;;;;3.07;1.80;;;20.10;60.70;;;;;;15326319;29;20103;-63
2020/12/11 14:28:36;;;;;;;5.68;2.53;;;20.10;62.60;;;;;;15340745;29;20039;-66
2020/12/11 14:36:07;;;;;;;5.57;2.87;;;20.10;63.20;;;;;;15352395;29;20114;-61
2020/12/11 14:43:38;;;;;;;4.20;1.97;;;20.10;64.30;;;;;;15325087;29;20543;-60
2020/12/11 14:51:08;;;;;;;3.50;1.70;;;20.20;63.30;;;;;;15324250;29;21020;-60
2020/12/11 14:58:39;;;;;;;3.67;1.98;;;20.20;63.00;;;;;;15323542;29;20107;-60
2020/12/11 15:06:10;;;;;;;4.07;1.53;;;20.20;62.10;;;;;;15322311;29;20043;-60
2020/12/11 15:13:44;;;;;;;3.95;1.60;;;20.10;61.70;;;;;;15322576;29;20028;-60
2020/12/11 15:21:14;;;;;;;7.60;2.55;;;20.10;61.70;;;;;;15323078;29;20032;-60
2020/12/11 15:28:45;;;;;;;3.97;2.40;;;20.10;61.70;;;;;;15322675;29;20028;-60
2020/12/11 15:36:18;;;;;;;6.77;3.37;;;20.10;62.10;;;;;;15321977;29;20403;-64
2020/12/11 15:43:48;;;;;;;4.18;2.42;;;20.10;62.00;;;;;;15320072;29;20846;-64
2020/12/11 15:51:23;;;;;;;5.63;2.23;;;20.10;62.60;;;;;;15319886;29;20039;-60
2020/12/11 15:58:54;;;;;;;6.03;2.55;;;20.20;62.00;;;;;;15322824;29;20024;-60
2020/12/11 16:06:25;;;;;;;5.87;2.23;;;20.20;61.80;;;;;;15336135;23;20399;-65
2020/12/11 16:13:57;;;;;;;4.32;2.10;;;20.10;61.90;;;;;;15325537;29;20503;-65
2020/12/11 16:21:28;;;;;;;3.90;2.05;;;20.20;61.90;;;;;;15331815;29;20500;-65
2020/12/11 16:28:58;;;;;;;4.80;2.13;;;20.20;61.80;;;;;;15331887;29;20082;-66
2020/12/11 16:36:29;;;;;;;3.47;2.10;;;20.30;61.70;;;;;;15330888;29;20414;-65
2020/12/11 16:44:05;;;;;;;4.80;1.90;;;20.30;61.50;;;;;;15330393;29;20505;-65
2020/12/11 16:51:38;;;;;;;3.40;1.80;;;20.30;61.40;;;;;;15329655;29;20119;-65
2020/12/11 16:59:09;;;;;;;4.95;1.95;;;20.30;61.20;;;;;;15329559;29;20394;-66
2020/12/11 17:06:43;;;;;;;5.15;1.90;;;20.30;61.10;;;;;;15329352;29;20057;-65
2020/12/11 17:14:17;;;;;;;4.43;1.58;;;20.30;60.90;;;;;;15329958;29;20401;-65
2020/12/11 17:21:50;;;;;;;3.53;1.58;;;20.30;61.20;;;;;;15329829;29;20035;-66
2020/12/11 17:29:21;;;;;;;6.57;1.50;;;20.30;61.50;;;;;;15328942;29;20387;-65
2020/12/11 17:36:52;;;;;;;4.55;1.88;;;20.30;60.90;;;;;;15327525;29;20023;-66
2020/12/11 17:44:25;;;;;;;10.32;2.58;;;20.30;60.90;;;;;;15328072;29;20035;-62
2020/12/11 17:51:56;;;;;;;6.25;2.30;;;20.30;61.00;;;;;;15327382;29;20090;-62
2020/12/11 17:59:26;;;;;;;4.95;2.50;;;20.30;61.20;;;;;;15327041;29;20434;-63
2020/12/11 18:06:57;;;;;;;12.13;2.57;;;20.30;61.00;;;;;;15325478;29;20070;-62
2020/12/11 18:14:28;;;;;;;17.52;5.15;;;20.30;61.10;;;;;;15326084;29;20082;-67
2020/12/11 18:22:02;;;;;;;43.47;27.05;;;20.30;61.40;;;;;;15325749;29;20023;-65
2020/12/11 18:29:44;;;;;;;73.25;43.47;;;20.30;61.60;;;;;;15323967;29;20027;-62
2020/12/11 18:37:14;;;;;;;103.15;63.22;;;20.40;61.50;;;;;;15323654;29;20024;-65
2020/12/11 18:44:45;;;;;;;87.47;54.80;;;20.40;61.30;;;;;;15323904;29;20095;-65
2020/12/11 18:52:18;;;;;;;58.63;34.83;;;20.40;60.90;;;;;;15325412;29;20451;-65
2020/12/11 18:59:49;;;;;;;54.13;32.65;;;20.40;60.70;;;;;;15321981;29;20391;-62
2020/12/11 19:07:19;;;;;;;37.60;23.97;;;20.40;60.40;;;;;;15322533;29;20036;-61
2020/12/11 19:14:50;;;;;;;17.73;14.18;;;20.30;58.20;;;;;;15321000;29;20118;-61
2020/12/11 19:22:20;;;;;;;13.90;9.83;;;18.40;41.10;;;;;;15322682;29;20040;-61
2020/12/11 19:29:51;;;;;;;10.43;6.67;;;18.60;51.00;;;;;;15321771;29;20402;-62
